createdAt,value
2018-04-18T00:00:01.789Z,14.73
2018-04-18T00:01:02.503Z,14.70
2018-04-18T00:02:03.215Z,14.81
2018-04-18T00:03:03.927Z,14.69
2018-04-18T00:04:04.644Z,14.77
2018-04-18T00:05:05.355Z,14.70
2018-04-18T00:06:06.068Z,14.69
2018-04-18T00:07:06.793Z,14.70
2018-04-18T00:08:07.509Z,14.79
2018-04-18T00:09:08.223Z,14.73
2018-04-18T00:10:08.933Z,14.77
2018-04-18T00:11:09.661Z,14.66
2018-04-18T00:12:10.390Z,14.62
2018-04-18T00:13:11.103Z,14.62
2018-04-18T00:14:11.817Z,14.54
2018-04-18T00:15:12.531Z,14.51
2018-04-18T00:16:13.246Z,14.45
2018-04-18T00:17:13.960Z,14.41
2018-04-18T00:18:14.673Z,14.40
2018-04-18T00:19:15.390Z,14.35
2018-04-18T00:20:16.100Z,14.30
2018-04-18T00:21:16.815Z,14.28
2018-04-18T00:22:17.529Z,14.23
2018-04-18T00:23:18.250Z,14.14
2018-04-18T00:24:18.957Z,14.12
2018-04-18T00:25:19.670Z,14.10
2018-04-18T00:26:20.382Z,14.03
2018-04-18T00:27:21.096Z,14.05
2018-04-18T00:28:21.807Z,14.05
2018-04-18T00:29:22.520Z,13.99
2018-04-18T00:30:23.233Z,13.93
2018-04-18T00:31:23.944Z,13.90
2018-04-18T00:32:24.657Z,13.92
2018-04-18T00:33:25.370Z,13.93
2018-04-18T00:34:26.083Z,13.89
2018-04-18T00:35:26.796Z,13.93
2018-04-18T00:36:27.525Z,13.92
2018-04-18T00:37:28.239Z,13.92
2018-04-18T00:38:28.966Z,13.97
2018-04-18T00:39:29.679Z,13.97
2018-04-18T00:40:30.392Z,13.92
2018-04-18T00:41:31.106Z,13.87
2018-04-18T00:42:31.819Z,13.93
2018-04-18T00:43:32.544Z,13.89
2018-04-18T00:44:33.269Z,13.85
2018-04-18T00:45:33.983Z,13.78
2018-04-18T00:46:34.699Z,13.78
2018-04-18T00:47:35.414Z,13.75
2018-04-18T00:48:36.140Z,13.68
2018-04-18T00:49:36.854Z,13.70
2018-04-18T00:50:37.568Z,13.67
2018-04-18T00:51:38.300Z,13.60
2018-04-18T00:52:39.010Z,13.52
2018-04-18T00:53:39.737Z,13.67
2018-04-18T00:54:40.449Z,13.54
2018-04-18T00:55:41.162Z,13.50
2018-04-18T00:56:41.876Z,13.54
2018-04-18T00:57:42.589Z,13.56
2018-04-18T00:58:43.301Z,13.47
2018-04-18T00:59:44.029Z,13.52
2018-04-18T01:00:44.739Z,13.60
2018-04-18T01:01:45.457Z,13.60
2018-04-18T01:02:46.181Z,13.60
2018-04-18T01:03:46.909Z,13.60
2018-04-18T01:04:47.651Z,13.56
2018-04-18T01:05:48.336Z,13.52
2018-04-18T01:06:49.048Z,13.56
2018-04-18T01:07:49.768Z,13.67
2018-04-18T01:08:50.478Z,13.54
2018-04-18T01:09:51.203Z,13.54
2018-04-18T01:10:51.916Z,13.54
2018-04-18T01:11:52.629Z,13.50
2018-04-18T01:12:53.340Z,13.56
2018-04-18T01:13:54.052Z,13.46
2018-04-18T01:14:54.765Z,13.47
2018-04-18T01:15:55.511Z,13.44
2018-04-18T01:16:56.195Z,13.42
2018-04-18T01:17:56.904Z,13.49
2018-04-18T01:18:57.615Z,13.57
2018-04-18T01:19:58.340Z,13.59
2018-04-18T01:20:59.053Z,13.54
2018-04-18T01:21:59.779Z,13.60
2018-04-18T01:23:00.491Z,13.52
2018-04-18T01:24:01.206Z,13.49
2018-04-18T01:25:01.924Z,13.59
2018-04-18T01:26:02.634Z,13.49
2018-04-18T01:27:03.356Z,13.52
2018-04-18T01:28:04.075Z,13.52
2018-04-18T01:29:04.780Z,13.59
2018-04-18T01:30:05.492Z,13.54
2018-04-18T01:31:06.218Z,13.47
2018-04-18T01:32:06.948Z,13.60
2018-04-18T01:33:07.662Z,13.56
2018-04-18T01:34:08.376Z,13.60
2018-04-18T01:35:09.098Z,13.62
2018-04-18T01:36:09.835Z,13.60
2018-04-18T01:37:10.588Z,13.54
2018-04-18T01:38:11.331Z,13.60
2018-04-18T01:39:12.066Z,13.60
2018-04-18T01:40:12.790Z,13.59
2018-04-18T01:41:13.515Z,13.50
2018-04-18T01:42:14.240Z,13.53
2018-04-18T01:43:14.989Z,13.44
2018-04-18T01:44:15.713Z,13.50
2018-04-18T01:45:16.435Z,13.52
2018-04-18T01:46:17.187Z,13.39
2018-04-18T01:47:17.916Z,13.38
2018-04-18T01:48:18.639Z,13.39
2018-04-18T01:49:19.361Z,13.30
2018-04-18T01:50:20.084Z,13.42
2018-04-18T01:51:20.810Z,13.38
2018-04-18T01:52:21.544Z,13.37
2018-04-18T01:53:22.279Z,13.30
2018-04-18T01:54:23.002Z,13.33
2018-04-18T01:55:23.737Z,13.30
2018-04-18T01:56:24.464Z,13.30
2018-04-18T01:57:25.186Z,13.22
2018-04-18T01:58:25.922Z,13.18
2018-04-18T01:59:26.648Z,13.13
2018-04-18T02:00:27.380Z,13.15
2018-04-18T02:01:28.107Z,12.98
2018-04-18T02:02:28.834Z,13.03
2018-04-18T02:03:29.563Z,13.03
2018-04-18T02:04:30.323Z,13.03
2018-04-18T02:05:31.057Z,13.09
2018-04-18T02:06:31.794Z,12.94
2018-04-18T02:07:32.551Z,13.04
2018-04-18T02:08:33.273Z,13.05
2018-04-18T02:09:33.997Z,12.98
2018-04-18T02:10:34.721Z,12.90
2018-04-18T02:11:35.447Z,12.93
2018-04-18T02:12:36.181Z,13.05
2018-04-18T02:13:36.939Z,12.87
2018-04-18T02:14:37.664Z,12.95
2018-04-18T02:15:38.388Z,12.94
2018-04-18T02:16:39.111Z,12.86
2018-04-18T02:17:39.834Z,13.01
2018-04-18T02:18:40.557Z,13.04
2018-04-18T02:19:41.280Z,12.93
2018-04-18T02:20:42.032Z,13.00
2018-04-18T02:21:42.756Z,12.90
2018-04-18T02:22:43.480Z,12.85
2018-04-18T02:23:44.202Z,12.83
2018-04-18T02:24:44.948Z,12.80
2018-04-18T02:25:45.672Z,12.90
2018-04-18T02:26:46.394Z,12.83
2018-04-18T02:27:47.130Z,12.87
2018-04-18T02:28:47.899Z,12.83
2018-04-18T02:29:48.637Z,12.86
2018-04-18T02:30:49.362Z,12.83
2018-04-18T02:31:50.112Z,12.80
2018-04-18T02:32:50.837Z,12.76
2018-04-18T02:33:51.571Z,12.76
2018-04-18T02:34:52.329Z,12.76
2018-04-18T02:35:53.051Z,12.76
2018-04-18T02:36:53.775Z,12.73
2018-04-18T02:37:54.512Z,12.76
2018-04-18T02:38:55.235Z,12.68
2018-04-18T02:39:55.968Z,12.57
2018-04-18T02:40:56.739Z,12.62
2018-04-18T02:41:57.463Z,12.62
2018-04-18T02:42:58.185Z,12.55
2018-04-18T02:43:58.920Z,12.53
2018-04-18T02:44:59.647Z,12.45
2018-04-18T02:46:00.391Z,12.47
2018-04-18T02:47:01.105Z,12.45
2018-04-18T02:48:01.827Z,12.50
2018-04-18T02:49:02.551Z,12.43
2018-04-18T02:50:03.273Z,12.46
2018-04-18T02:51:04.011Z,12.49
2018-04-18T02:52:04.734Z,12.47
2018-04-18T02:53:05.480Z,12.46
2018-04-18T02:54:06.205Z,12.47
2018-04-18T02:55:06.928Z,12.43
2018-04-18T02:56:07.662Z,12.46
2018-04-18T02:57:09.802Z,12.45
2018-04-18T02:58:10.535Z,12.43
2018-04-18T02:59:11.252Z,12.50
2018-04-18T03:00:11.995Z,12.53
2018-04-18T03:01:12.732Z,12.46
2018-04-18T03:02:13.490Z,12.45
2018-04-18T03:03:14.212Z,12.43
2018-04-18T03:04:14.936Z,12.35
2018-04-18T03:05:15.680Z,12.42
2018-04-18T03:06:16.408Z,12.35
2018-04-18T03:07:17.128Z,12.45
2018-04-18T03:08:17.863Z,12.24
2018-04-18T03:09:18.590Z,12.20
2018-04-18T03:10:19.312Z,12.20
2018-04-18T03:11:20.037Z,12.18
2018-04-18T03:12:20.786Z,12.09
2018-04-18T03:13:21.510Z,12.17
2018-04-18T03:14:22.245Z,12.02
2018-04-18T03:15:22.969Z,12.02
2018-04-18T03:16:23.699Z,11.99
2018-04-18T03:17:24.451Z,11.83
2018-04-18T03:18:25.163Z,11.90
2018-04-18T03:19:25.911Z,11.88
2018-04-18T03:20:26.635Z,11.90
2018-04-18T03:21:27.360Z,11.87
2018-04-18T03:22:28.095Z,11.83
2018-04-18T03:23:28.816Z,11.78
2018-04-18T03:24:29.552Z,11.87
2018-04-18T03:25:30.276Z,11.88
2018-04-18T03:26:31.000Z,11.80
2018-04-18T03:27:31.734Z,11.83
2018-04-18T03:28:32.490Z,11.81
2018-04-18T03:29:33.214Z,11.86
2018-04-18T03:30:33.949Z,11.83
2018-04-18T03:31:34.675Z,11.84
2018-04-18T03:32:35.422Z,11.77
2018-04-18T03:33:36.165Z,11.86
2018-04-18T03:34:36.913Z,11.80
2018-04-18T03:35:37.639Z,11.84
2018-04-18T03:36:38.362Z,11.73
2018-04-18T03:37:39.096Z,11.78
2018-04-18T03:38:39.865Z,11.72
2018-04-18T03:39:40.599Z,11.80
2018-04-18T03:40:41.358Z,11.72
2018-04-18T03:41:42.078Z,11.70
2018-04-18T03:42:42.836Z,11.77
2018-04-18T03:43:43.595Z,11.68
2018-04-18T03:44:44.317Z,11.70
2018-04-18T03:45:45.066Z,11.66
2018-04-18T03:46:45.787Z,11.72
2018-04-18T03:47:46.514Z,11.78
2018-04-18T03:48:47.249Z,11.77
2018-04-18T03:49:48.008Z,11.75
2018-04-18T03:50:48.756Z,11.72
2018-04-18T03:51:49.505Z,11.80
2018-04-18T03:52:50.239Z,11.72
2018-04-18T03:53:50.973Z,11.78
2018-04-18T03:54:51.742Z,11.75
2018-04-18T03:55:52.466Z,11.78
2018-04-18T03:56:53.225Z,11.75
2018-04-18T03:57:53.948Z,11.80
2018-04-18T03:58:54.682Z,11.75
2018-04-18T03:59:55.409Z,11.80
2018-04-18T04:00:56.130Z,11.81
2018-04-18T04:01:56.889Z,11.75
2018-04-18T04:02:57.627Z,11.84
2018-04-18T04:03:58.360Z,11.78
2018-04-18T04:04:59.083Z,11.69
2018-04-18T04:05:59.810Z,11.78
2018-04-18T04:07:00.530Z,11.75
2018-04-18T04:08:01.258Z,11.72
2018-04-18T04:09:01.979Z,11.66
2018-04-18T04:10:02.740Z,11.70
2018-04-18T04:11:03.473Z,11.66
2018-04-18T04:12:04.208Z,11.70
2018-04-18T04:13:04.931Z,11.66
2018-04-18T04:14:05.656Z,11.72
2018-04-18T04:15:06.380Z,11.70
2018-04-18T04:16:07.102Z,11.60
2018-04-18T04:17:07.837Z,11.59
2018-04-18T04:18:08.607Z,11.59
2018-04-18T04:19:09.329Z,11.60
2018-04-18T04:20:10.053Z,11.55
2018-04-18T04:21:10.779Z,11.60
2018-04-18T04:22:11.503Z,11.59
2018-04-18T04:23:12.233Z,11.65
2018-04-18T04:24:12.975Z,11.66
2018-04-18T04:25:13.699Z,11.62
2018-04-18T04:26:14.448Z,11.63
2018-04-18T04:27:15.183Z,11.66
2018-04-18T04:28:15.908Z,11.65
2018-04-18T04:29:16.633Z,11.68
2018-04-18T04:30:17.361Z,11.66
2018-04-18T04:31:18.086Z,11.69
2018-04-18T04:32:18.841Z,11.73
2018-04-18T04:33:19.566Z,11.66
2018-04-18T04:34:20.301Z,11.73
2018-04-18T04:35:21.074Z,11.70
2018-04-18T04:36:21.801Z,11.66
2018-04-18T04:37:22.529Z,11.78
2018-04-18T04:38:23.304Z,11.78
2018-04-18T04:39:24.008Z,11.73
2018-04-18T04:40:24.736Z,11.78
2018-04-18T04:41:25.463Z,11.73
2018-04-18T04:42:26.201Z,11.73
2018-04-18T04:43:26.926Z,11.78
2018-04-18T04:44:27.676Z,11.73
2018-04-18T04:45:28.412Z,11.68
2018-04-18T04:46:29.141Z,11.75
2018-04-18T04:47:29.877Z,11.69
2018-04-18T04:48:30.603Z,11.73
2018-04-18T04:49:31.341Z,11.77
2018-04-18T04:50:32.078Z,11.68
2018-04-18T04:51:32.806Z,11.80
2018-04-18T04:52:33.532Z,11.70
2018-04-18T04:53:34.258Z,11.77
2018-04-18T04:54:34.985Z,11.80
2018-04-18T04:55:35.713Z,11.78
2018-04-18T04:56:36.450Z,11.78
2018-04-18T04:57:37.226Z,11.86
2018-04-18T04:58:37.995Z,11.80
2018-04-18T04:59:38.724Z,11.84
2018-04-18T05:00:39.448Z,11.86
2018-04-18T05:01:40.199Z,11.90
2018-04-18T05:02:40.927Z,11.88
2018-04-18T05:03:41.655Z,11.99
2018-04-18T05:04:42.408Z,11.95
2018-04-18T05:05:43.147Z,11.97
2018-04-18T05:06:43.887Z,11.97
2018-04-18T05:07:44.661Z,12.03
2018-04-18T05:08:45.391Z,12.07
2018-04-18T05:09:46.118Z,12.06
2018-04-18T05:10:46.847Z,12.18
2018-04-18T05:11:47.574Z,12.09
2018-04-18T05:12:48.313Z,12.04
2018-04-18T05:13:49.040Z,12.06
2018-04-18T05:14:49.765Z,12.12
2018-04-18T05:15:50.504Z,12.12
2018-04-18T05:16:51.245Z,12.13
2018-04-18T05:17:52.005Z,12.18
2018-04-18T05:18:52.734Z,12.18
2018-04-18T05:19:53.475Z,12.18
2018-04-18T05:20:54.202Z,12.17
2018-04-18T05:21:54.955Z,12.21
2018-04-18T05:22:55.684Z,12.22
2018-04-18T05:23:56.422Z,12.20
2018-04-18T05:24:57.197Z,12.22
2018-04-18T05:25:57.961Z,12.22
2018-04-18T05:26:58.701Z,12.20
2018-04-18T05:27:59.430Z,12.20
2018-04-18T05:29:00.158Z,12.21
2018-04-18T05:30:00.886Z,12.20
2018-04-18T05:31:01.635Z,12.29
2018-04-18T05:32:02.387Z,12.24
2018-04-18T05:33:03.114Z,12.22
2018-04-18T05:34:03.843Z,12.36
2018-04-18T05:35:04.573Z,12.40
2018-04-18T05:36:05.311Z,12.49
2018-04-18T05:37:06.051Z,12.53
2018-04-18T05:38:06.789Z,12.49
2018-04-18T05:39:07.557Z,12.49
2018-04-18T05:40:08.292Z,12.61
2018-04-18T05:41:09.021Z,12.65
2018-04-18T05:42:09.761Z,12.68
2018-04-18T05:43:10.492Z,12.76
2018-04-18T05:44:11.231Z,12.79
2018-04-18T05:45:11.989Z,12.70
2018-04-18T05:46:12.700Z,12.79
2018-04-18T05:47:13.428Z,12.80
2018-04-18T05:48:14.167Z,13.00
2018-04-18T05:49:14.906Z,12.95
2018-04-18T05:50:15.633Z,13.00
2018-04-18T05:51:16.361Z,12.97
2018-04-18T05:52:17.125Z,13.15
2018-04-18T05:53:17.890Z,13.11
2018-04-18T05:54:18.620Z,13.23
2018-04-18T05:55:19.363Z,13.28
2018-04-18T05:56:20.115Z,13.33
2018-04-18T05:57:20.868Z,13.37
2018-04-18T05:58:21.598Z,13.28
2018-04-18T05:59:22.360Z,13.33
2018-04-18T06:00:23.088Z,13.44
2018-04-18T06:01:23.839Z,13.42
2018-04-18T06:02:24.567Z,13.54
2018-04-18T06:03:25.299Z,13.44
2018-04-18T06:04:26.028Z,13.49
2018-04-18T06:05:26.774Z,13.63
2018-04-18T06:06:27.537Z,13.60
2018-04-18T06:07:28.269Z,13.57
2018-04-18T06:08:29.003Z,13.63
2018-04-18T06:09:29.763Z,13.67
2018-04-18T06:10:30.521Z,13.74
2018-04-18T06:11:31.252Z,13.79
2018-04-18T06:12:31.985Z,13.83
2018-04-18T06:13:32.712Z,13.78
2018-04-18T06:14:33.464Z,13.92
2018-04-18T06:15:34.214Z,13.85
2018-04-18T06:16:34.967Z,13.83
2018-04-18T06:17:35.713Z,13.93
2018-04-18T06:18:36.436Z,13.93
2018-04-18T06:19:37.178Z,14.00
2018-04-18T06:20:37.943Z,13.93
2018-04-18T06:21:38.673Z,14.05
2018-04-18T06:22:39.415Z,14.12
2018-04-18T06:23:40.158Z,14.12
2018-04-18T06:24:40.921Z,14.17
2018-04-18T06:25:41.653Z,14.30
2018-04-18T06:26:42.385Z,14.44
2018-04-18T06:27:43.118Z,14.53
2018-04-18T06:28:43.845Z,14.59
2018-04-18T06:29:44.574Z,14.72
2018-04-18T06:30:45.317Z,14.79
2018-04-18T06:31:46.050Z,14.96
2018-04-18T06:32:46.782Z,15.09
2018-04-18T06:33:47.513Z,15.21
2018-04-18T06:34:48.250Z,15.25
2018-04-18T06:35:49.005Z,15.42
2018-04-18T06:36:49.766Z,15.57
2018-04-18T06:37:50.498Z,15.72
2018-04-18T06:38:51.255Z,15.73
2018-04-18T06:39:51.991Z,15.83
2018-04-18T06:40:52.719Z,15.95
2018-04-18T06:41:53.462Z,15.95
2018-04-18T06:42:54.208Z,16.10
2018-04-18T06:43:54.989Z,16.21
2018-04-18T06:44:55.727Z,16.20
2018-04-18T06:45:56.523Z,16.23
2018-04-18T06:46:57.218Z,16.35
2018-04-18T06:47:57.977Z,16.54
2018-04-18T06:48:58.714Z,16.61
2018-04-18T06:49:59.463Z,16.78
2018-04-18T06:51:00.240Z,16.86
2018-04-18T06:52:01.021Z,16.99
2018-04-18T06:53:01.796Z,17.16
2018-04-18T06:54:02.540Z,17.38
2018-04-18T06:55:03.311Z,17.45
2018-04-18T06:56:04.049Z,17.67
2018-04-18T06:57:04.825Z,17.87
2018-04-18T06:58:05.558Z,18.04
2018-04-18T06:59:06.330Z,18.18
2018-04-18T07:00:07.067Z,18.40
2018-04-18T07:01:07.817Z,18.59
2018-04-18T07:02:08.567Z,18.47
2018-04-18T07:03:09.309Z,18.71
2018-04-18T07:04:10.049Z,18.78
2018-04-18T07:05:10.788Z,19.00
2018-04-18T07:06:11.525Z,19.15
2018-04-18T07:07:12.263Z,19.29
2018-04-18T07:08:13.001Z,19.37
2018-04-18T07:09:13.749Z,19.54
2018-04-18T07:10:14.524Z,19.74
2018-04-18T07:11:15.307Z,19.95
2018-04-18T07:12:16.009Z,20.10
2018-04-18T07:13:16.762Z,20.25
2018-04-18T07:14:17.502Z,20.41
2018-04-18T07:15:18.250Z,20.59
2018-04-18T07:16:18.990Z,20.81
2018-04-18T07:17:19.742Z,20.97
2018-04-18T07:18:20.477Z,21.20
2018-04-18T07:19:21.221Z,21.37
2018-04-18T07:20:21.991Z,21.46
2018-04-18T07:21:22.779Z,21.67
2018-04-18T07:22:23.561Z,21.62
2018-04-18T07:23:24.282Z,21.39
2018-04-18T07:24:25.059Z,21.73
2018-04-18T07:25:25.801Z,21.85
2018-04-18T07:26:26.538Z,21.93
2018-04-18T07:27:27.289Z,22.06
2018-04-18T07:28:28.029Z,21.99
2018-04-18T07:29:28.768Z,21.96
2018-04-18T07:30:29.511Z,22.11
2018-04-18T07:31:30.252Z,22.15
2018-04-18T07:32:31.029Z,22.28
2018-04-18T07:33:31.771Z,22.25
2018-04-18T07:34:32.514Z,22.22
2018-04-18T07:35:33.278Z,22.30
2018-04-18T07:36:34.024Z,22.39
2018-04-18T07:37:34.768Z,22.38
2018-04-18T07:38:35.511Z,22.44
2018-04-18T07:39:36.263Z,22.04
2018-04-18T07:40:37.018Z,22.15
2018-04-18T07:41:37.797Z,22.38
2018-04-18T07:42:38.569Z,22.54
2018-04-18T07:43:39.312Z,22.28
2018-04-18T07:44:40.068Z,22.59
2018-04-18T07:45:40.856Z,22.76
2018-04-18T07:46:41.639Z,22.76
2018-04-18T07:47:42.367Z,23.06
2018-04-18T07:48:43.123Z,23.15
2018-04-18T07:49:43.867Z,23.34
2018-04-18T07:50:44.610Z,23.54
2018-04-18T07:51:45.390Z,23.46
2018-04-18T07:52:46.135Z,23.76
2018-04-18T07:53:46.892Z,23.99
2018-04-18T07:54:47.646Z,24.21
2018-04-18T07:55:48.395Z,24.36
2018-04-18T07:56:49.141Z,24.77
2018-04-18T07:57:49.887Z,24.91
2018-04-18T07:58:50.643Z,24.60
2018-04-18T07:59:51.391Z,24.28
2018-04-18T08:00:52.135Z,24.16
2018-04-18T08:01:52.930Z,24.40
2018-04-18T08:02:53.636Z,24.65
2018-04-18T08:03:54.416Z,24.86
2018-04-18T08:04:55.196Z,25.16
2018-04-18T08:05:55.943Z,25.55
2018-04-18T08:06:56.688Z,25.55
2018-04-18T08:07:57.446Z,25.54
2018-04-18T08:08:58.226Z,25.03
2018-04-18T08:09:58.980Z,25.31
2018-04-18T08:10:59.740Z,25.31
2018-04-18T08:12:00.499Z,25.44
2018-04-18T08:13:01.246Z,25.44
2018-04-18T08:14:02.020Z,25.75
2018-04-18T08:15:02.766Z,25.98
2018-04-18T08:16:03.525Z,26.41
2018-04-18T08:17:04.307Z,26.65
2018-04-18T08:18:05.066Z,26.80
2018-04-18T08:19:05.812Z,26.80
2018-04-18T08:20:06.580Z,26.06
2018-04-18T08:21:07.326Z,26.06
2018-04-18T08:22:08.089Z,26.13
2018-04-18T08:23:08.871Z,26.37
2018-04-18T08:24:09.628Z,26.63
2018-04-18T08:25:10.376Z,26.65
2018-04-18T08:26:11.151Z,26.75
2018-04-18T08:27:11.912Z,26.95
2018-04-18T08:28:12.661Z,26.80
2018-04-18T08:29:13.412Z,27.03
2018-04-18T08:30:14.164Z,27.17
2018-04-18T08:31:14.916Z,27.42
2018-04-18T08:32:15.692Z,27.52
2018-04-18T08:33:16.440Z,27.74
2018-04-18T08:34:17.188Z,27.65
2018-04-18T08:35:17.964Z,27.52
2018-04-18T08:36:18.736Z,27.37
2018-04-18T08:37:19.488Z,27.03
2018-04-18T08:38:20.241Z,26.80
2018-04-18T08:39:20.997Z,26.07
2018-04-18T08:40:21.760Z,26.13
2018-04-18T08:41:22.517Z,26.44
2018-04-18T08:42:23.271Z,26.59
2018-04-18T08:43:24.029Z,26.80
2018-04-18T08:44:24.778Z,26.99
2018-04-18T08:45:25.565Z,27.36
2018-04-18T08:46:26.329Z,27.73
2018-04-18T08:47:27.089Z,27.90
2018-04-18T08:48:27.882Z,28.00
2018-04-18T08:49:28.674Z,28.01
2018-04-18T08:50:29.448Z,28.17
2018-04-18T08:51:30.201Z,28.23
2018-04-18T08:52:30.971Z,27.89
2018-04-18T08:53:31.740Z,28.10
2018-04-18T08:54:32.492Z,28.57
2018-04-18T08:55:33.262Z,27.93
2018-04-18T08:56:34.025Z,28.08
2018-04-18T08:57:34.790Z,28.20
2018-04-18T08:58:35.545Z,27.95
2018-04-18T08:59:36.308Z,28.38
2018-04-18T09:00:37.076Z,28.63
2018-04-18T09:01:37.831Z,29.08
2018-04-18T09:02:38.612Z,29.44
2018-04-18T09:03:39.389Z,29.87
2018-04-18T09:04:40.155Z,29.71
2018-04-18T09:05:40.924Z,29.91
2018-04-18T09:06:41.713Z,30.02
2018-04-18T09:07:42.469Z,29.49
2018-04-18T09:08:43.226Z,29.54
2018-04-18T09:09:44.059Z,29.87
2018-04-18T09:10:44.787Z,29.79
2018-04-18T09:11:45.551Z,29.73
2018-04-18T09:12:46.315Z,29.90
2018-04-18T09:13:47.107Z,29.91
2018-04-18T09:14:47.857Z,29.98
2018-04-18T09:15:48.638Z,29.38
2018-04-18T09:16:49.378Z,29.04
2018-04-18T09:17:50.133Z,28.86
2018-04-18T09:18:50.890Z,29.22
2018-04-18T09:19:51.645Z,29.56
2018-04-18T09:20:52.403Z,29.42
2018-04-18T09:21:53.156Z,29.22
2018-04-18T09:22:53.924Z,28.89
2018-04-18T09:23:54.678Z,28.91
2018-04-18T09:24:55.445Z,29.12
2018-04-18T09:25:56.235Z,29.05
2018-04-18T09:26:56.990Z,29.61
2018-04-18T09:27:57.768Z,29.93
2018-04-18T09:28:58.546Z,30.40
2018-04-18T09:29:59.314Z,30.54
2018-04-18T09:31:00.081Z,29.59
2018-04-18T09:32:00.882Z,29.91
2018-04-18T09:33:01.649Z,29.84
2018-04-18T09:34:02.457Z,29.65
2018-04-18T09:35:03.204Z,29.86
2018-04-18T09:36:03.958Z,29.71
2018-04-18T09:37:04.727Z,29.91
2018-04-18T09:38:05.487Z,29.94
2018-04-18T09:39:06.236Z,29.66
2018-04-18T09:40:07.003Z,29.20
2018-04-18T09:41:07.761Z,29.14
2018-04-18T09:42:08.553Z,29.12
2018-04-18T09:43:09.306Z,29.32
2018-04-18T09:44:10.060Z,29.41
2018-04-18T09:45:10.826Z,29.50
2018-04-18T09:46:11.617Z,28.01
2018-04-18T09:47:12.335Z,28.05
2018-04-18T09:48:13.101Z,28.05
2018-04-18T09:49:13.864Z,28.00
2018-04-18T09:50:14.633Z,28.60
2018-04-18T09:51:15.431Z,29.17
2018-04-18T09:52:16.185Z,29.57
2018-04-18T09:53:16.944Z,29.90
2018-04-18T09:54:17.717Z,30.02
2018-04-18T09:55:18.475Z,29.35
2018-04-18T09:56:19.246Z,29.14
2018-04-18T09:57:20.027Z,28.37
2018-04-18T09:58:20.810Z,28.54
2018-04-18T09:59:21.597Z,28.67
2018-04-18T10:00:22.353Z,28.74
2018-04-18T10:01:23.105Z,28.93
2018-04-18T10:02:23.868Z,28.52
2018-04-18T10:03:24.664Z,28.78
2018-04-18T10:04:25.426Z,29.14
2018-04-18T10:05:26.184Z,29.35
2018-04-18T10:06:26.962Z,29.32
2018-04-18T10:07:27.742Z,29.51
2018-04-18T10:08:28.492Z,29.57
2018-04-18T10:09:29.284Z,29.12
2018-04-18T10:10:30.049Z,27.65
2018-04-18T10:11:30.811Z,27.07
2018-04-18T10:12:31.598Z,27.49
2018-04-18T10:13:32.370Z,27.74
2018-04-18T10:14:33.136Z,27.44
2018-04-18T10:15:33.886Z,27.47
2018-04-18T10:16:34.657Z,26.40
2018-04-18T10:17:35.423Z,26.70
2018-04-18T10:18:36.189Z,26.40
2018-04-18T10:19:36.975Z,26.65
2018-04-18T10:20:37.744Z,27.10
2018-04-18T10:21:38.532Z,27.35
2018-04-18T10:22:39.291Z,27.74
2018-04-18T10:23:40.048Z,28.17
2018-04-18T10:24:40.801Z,28.25
2018-04-18T10:25:41.571Z,28.91
2018-04-18T10:26:42.326Z,29.20
2018-04-18T10:27:43.091Z,29.47
2018-04-18T10:28:43.847Z,29.49
2018-04-18T10:29:44.601Z,29.78
2018-04-18T10:30:45.352Z,30.19
2018-04-18T10:31:46.124Z,30.55
2018-04-18T10:32:46.878Z,29.91
2018-04-18T10:33:47.649Z,30.03
2018-04-18T10:34:48.423Z,29.44
2018-04-18T10:35:49.188Z,29.61
2018-04-18T10:36:49.944Z,29.75
2018-04-18T10:37:50.712Z,30.40
2018-04-18T10:38:51.492Z,30.70
2018-04-18T10:39:52.245Z,31.34
2018-04-18T10:40:52.999Z,30.51
2018-04-18T10:41:53.750Z,30.48
2018-04-18T10:42:54.505Z,30.54
2018-04-18T10:43:55.296Z,30.16
2018-04-18T10:44:56.083Z,29.54
2018-04-18T10:45:56.839Z,29.81
2018-04-18T10:46:57.594Z,29.98
2018-04-18T10:47:58.359Z,29.98
2018-04-18T10:48:59.111Z,30.16
2018-04-18T10:49:59.866Z,29.79
2018-04-18T10:51:00.629Z,30.10
2018-04-18T10:52:01.393Z,30.61
2018-04-18T10:53:02.149Z,30.70
2018-04-18T10:54:02.901Z,30.08
2018-04-18T10:55:03.658Z,30.57
2018-04-18T10:56:04.428Z,30.00
2018-04-18T10:57:05.177Z,29.63
2018-04-18T10:58:05.927Z,29.14
2018-04-18T10:59:06.684Z,29.13
2018-04-18T11:00:07.443Z,29.82
2018-04-18T11:01:08.210Z,30.16
2018-04-18T11:02:08.962Z,30.62
2018-04-18T11:03:09.715Z,30.48
2018-04-18T11:04:10.487Z,31.03
2018-04-18T11:05:11.263Z,31.40
2018-04-18T11:06:12.015Z,31.84
2018-04-18T11:07:12.776Z,32.19
2018-04-18T11:08:13.531Z,32.56
2018-04-18T11:09:14.303Z,32.90
2018-04-18T11:10:15.065Z,32.89
2018-04-18T11:11:15.815Z,31.87
2018-04-18T11:12:16.578Z,31.29
2018-04-18T11:13:17.385Z,30.92
2018-04-18T11:14:18.146Z,31.36
2018-04-18T11:15:18.931Z,30.57
2018-04-18T11:16:19.715Z,30.94
2018-04-18T11:17:20.469Z,30.97
2018-04-18T11:18:21.227Z,30.78
2018-04-18T11:19:21.987Z,30.78
2018-04-18T11:20:22.772Z,30.09
2018-04-18T11:21:23.521Z,29.87
2018-04-18T11:22:24.283Z,29.76
2018-04-18T11:23:25.049Z,29.82
2018-04-18T11:24:25.847Z,30.02
2018-04-18T11:25:26.614Z,29.94
2018-04-18T11:26:27.368Z,29.88
2018-04-18T11:27:28.122Z,30.40
2018-04-18T11:28:28.871Z,30.50
2018-04-18T11:29:29.624Z,30.05
2018-04-18T11:30:30.396Z,30.65
2018-04-18T11:31:31.158Z,29.68
2018-04-18T11:32:31.923Z,29.73
2018-04-18T11:33:32.671Z,30.32
2018-04-18T11:34:33.425Z,30.57
2018-04-18T11:35:34.211Z,30.91
2018-04-18T11:36:34.962Z,31.40
2018-04-18T11:37:35.713Z,31.92
2018-04-18T11:38:36.489Z,31.76
2018-04-18T11:39:37.251Z,31.93
2018-04-18T11:40:38.036Z,32.36
2018-04-18T11:41:38.800Z,32.21
2018-04-18T11:42:39.582Z,31.90
2018-04-18T11:43:40.344Z,31.54
2018-04-18T11:44:41.095Z,31.96
2018-04-18T11:45:41.856Z,31.89
2018-04-18T11:46:42.604Z,31.69
2018-04-18T11:47:43.352Z,32.12
2018-04-18T11:48:44.100Z,32.01
2018-04-18T11:49:44.883Z,32.12
2018-04-18T11:50:45.631Z,32.00
2018-04-18T11:51:46.381Z,31.51
2018-04-18T11:52:47.131Z,31.31
2018-04-18T11:53:47.915Z,31.44
2018-04-18T11:54:48.665Z,31.77
2018-04-18T11:55:49.430Z,32.15
2018-04-18T11:56:50.217Z,31.59
2018-04-18T11:57:50.968Z,31.73
2018-04-18T11:58:51.751Z,32.01
2018-04-18T11:59:52.535Z,32.01
2018-04-18T12:00:53.286Z,30.78
2018-04-18T12:01:54.037Z,30.77
2018-04-18T12:02:54.787Z,30.54
2018-04-18T12:03:55.541Z,30.46
2018-04-18T12:04:56.295Z,30.27
2018-04-18T12:05:57.058Z,30.43
2018-04-18T12:06:57.810Z,30.47
2018-04-18T12:07:58.560Z,30.32
2018-04-18T12:08:59.343Z,29.86
2018-04-18T12:10:00.131Z,29.31
2018-04-18T12:11:00.883Z,28.57
2018-04-18T12:12:01.676Z,29.08
2018-04-18T12:13:02.470Z,29.59
2018-04-18T12:14:03.226Z,30.47
2018-04-18T12:15:03.984Z,29.84
2018-04-18T12:16:04.765Z,30.63
2018-04-18T12:17:05.519Z,31.33
2018-04-18T12:18:06.282Z,31.61
2018-04-18T12:19:07.047Z,31.96
2018-04-18T12:20:07.813Z,32.04
2018-04-18T12:21:08.610Z,30.77
2018-04-18T12:22:09.365Z,30.32
2018-04-18T12:23:10.153Z,30.62
2018-04-18T12:24:10.932Z,29.78
2018-04-18T12:25:11.721Z,29.57
2018-04-18T12:26:12.487Z,29.56
2018-04-18T12:27:13.243Z,30.00
2018-04-18T12:28:14.023Z,30.27
2018-04-18T12:29:14.786Z,30.59
2018-04-18T12:30:15.536Z,30.85
2018-04-18T12:31:16.322Z,30.78
2018-04-18T12:32:17.108Z,30.48
2018-04-18T12:33:17.893Z,30.02
2018-04-18T12:34:18.645Z,30.00
2018-04-18T12:35:19.396Z,29.51
2018-04-18T12:36:20.147Z,29.72
2018-04-18T12:37:20.899Z,29.82
2018-04-18T12:38:21.651Z,30.03
2018-04-18T12:39:22.431Z,30.27
2018-04-18T12:40:23.176Z,30.44
2018-04-18T12:41:23.939Z,30.77
2018-04-18T12:42:24.694Z,30.83
2018-04-18T12:43:25.483Z,31.29
2018-04-18T12:44:26.229Z,31.62
2018-04-18T12:45:27.014Z,32.12
2018-04-18T12:46:27.776Z,31.97
2018-04-18T12:47:28.560Z,31.80
2018-04-18T12:48:29.319Z,31.58
2018-04-18T12:49:30.072Z,31.28
2018-04-18T12:50:30.850Z,29.98
2018-04-18T12:51:31.603Z,29.53
2018-04-18T12:52:32.355Z,30.28
2018-04-18T12:53:33.111Z,30.61
2018-04-18T12:54:33.866Z,30.75
2018-04-18T12:55:34.651Z,29.98
2018-04-18T12:56:35.405Z,30.16
2018-04-18T12:57:36.211Z,30.63
2018-04-18T12:58:36.974Z,31.12
2018-04-18T12:59:37.727Z,31.44
2018-04-18T13:00:38.491Z,31.87
2018-04-18T13:01:39.252Z,30.62